sensor_id;sensor_type;location;lat;lon;timestamp;P1;durP1;ratioP1;P2;durP2;ratioP2
67554;SDS011;54385;53.516;49.456;2022-07-04T00:01:29;0.90;;;0.90;;
67554;SDS011;54385;53.516;49.456;2022-07-04T00:03:55;0.95;;;0.95;;
67554;SDS011;54385;53.516;49.456;2022-07-04T00:06:23;1.02;;;1.02;;
67554;SDS011;54385;53.516;49.456;2022-07-04T00:08:49;0.90;;;0.90;;
67554;SDS011;54385;53.516;49.456;2022-07-04T00:11:15;1.00;;;1.00;;
67554;SDS011;54385;53.516;49.456;2022-07-04T00:13:42;1.05;;;1.05;;
67554;SDS011;54385;53.516;49.456;2022-07-04T00:16:08;0.85;;;0.85;;
67554;SDS011;54385;53.516;49.456;2022-07-04T00:18:35;0.98;;;0.98;;
67554;SDS011;54385;53.516;49.456;2022-07-04T00:21:01;0.88;;;0.88;;
67554;SDS011;54385;53.516;49.456;2022-07-04T00:23:27;0.98;;;0.98;;
67554;SDS011;54385;53.516;49.456;2022-07-04T00:25:54;0.80;;;0.80;;
67554;SDS011;54385;53.516;49.456;2022-07-04T00:28:20;0.85;;;0.85;;
67554;SDS011;54385;53.516;49.456;2022-07-04T00:30:46;0.93;;;0.93;;
67554;SDS011;54385;53.516;49.456;2022-07-04T00:33:13;0.88;;;0.88;;
67554;SDS011;54385;53.516;49.456;2022-07-04T00:35:39;1.00;;;1.00;;
67554;SDS011;54385;53.516;49.456;2022-07-04T00:38:06;1.00;;;1.00;;
67554;SDS011;54385;53.516;49.456;2022-07-04T00:40:32;0.88;;;0.88;;
67554;SDS011;54385;53.516;49.456;2022-07-04T00:43:02;0.88;;;0.88;;
67554;SDS011;54385;53.516;49.456;2022-07-04T00:45:29;1.00;;;1.00;;
67554;SDS011;54385;53.516;49.456;2022-07-04T00:47:56;0.93;;;0.93;;
67554;SDS011;54385;53.516;49.456;2022-07-04T00:50:23;0.90;;;0.90;;
67554;SDS011;54385;53.516;49.456;2022-07-04T00:52:51;0.98;;;0.98;;
67554;SDS011;54385;53.516;49.456;2022-07-04T00:55:19;1.00;;;1.00;;
67554;SDS011;54385;53.516;49.456;2022-07-04T00:57:47;0.88;;;0.88;;
67554;SDS011;54385;53.516;49.456;2022-07-04T01:00:14;1.00;;;1.00;;
67554;SDS011;54385;53.516;49.456;2022-07-04T01:02:40;0.93;;;0.93;;
67554;SDS011;54385;53.516;49.456;2022-07-04T01:05:07;0.90;;;0.90;;
67554;SDS011;54385;53.516;49.456;2022-07-04T01:07:35;0.90;;;0.90;;
67554;SDS011;54385;53.516;49.456;2022-07-04T01:10:02;1.02;;;1.02;;
67554;SDS011;54385;53.516;49.456;2022-07-04T01:12:29;0.98;;;0.98;;
67554;SDS011;54385;53.516;49.456;2022-07-04T01:14:56;1.00;;;1.00;;
67554;SDS011;54385;53.516;49.456;2022-07-04T01:17:22;0.90;;;0.90;;
67554;SDS011;54385;53.516;49.456;2022-07-04T01:19:49;1.00;;;1.00;;
67554;SDS011;54385;53.516;49.456;2022-07-04T01:22:16;0.93;;;0.93;;
67554;SDS011;54385;53.516;49.456;2022-07-04T01:24:42;1.00;;;1.00;;
67554;SDS011;54385;53.516;49.456;2022-07-04T01:27:09;1.00;;;1.00;;
67554;SDS011;54385;53.516;49.456;2022-07-04T01:29:35;0.88;;;0.88;;
67554;SDS011;54385;53.516;49.456;2022-07-04T01:32:08;0.93;;;0.93;;
67554;SDS011;54385;53.516;49.456;2022-07-04T01:34:35;1.05;;;1.05;;
67554;SDS011;54385;53.516;49.456;2022-07-04T01:37:02;1.13;;;1.13;;
67554;SDS011;54385;53.516;49.456;2022-07-04T01:39:28;0.95;;;0.95;;
67554;SDS011;54385;53.516;49.456;2022-07-04T01:41:55;0.93;;;0.93;;
67554;SDS011;54385;53.516;49.456;2022-07-04T01:44:22;1.00;;;1.00;;
67554;SDS011;54385;53.516;49.456;2022-07-04T01:46:48;1.02;;;1.02;;
67554;SDS011;54385;53.516;49.456;2022-07-04T01:49:14;1.05;;;1.05;;
67554;SDS011;54385;53.516;49.456;2022-07-04T01:51:47;1.05;;;1.05;;
67554;SDS011;54385;53.516;49.456;2022-07-04T01:54:15;1.02;;;1.02;;
67554;SDS011;54385;53.516;49.456;2022-07-04T01:56:41;0.93;;;0.93;;
67554;SDS011;54385;53.516;49.456;2022-07-04T01:59:08;0.93;;;0.93;;
67554;SDS011;54385;53.516;49.456;2022-07-04T02:01:35;1.00;;;1.00;;
67554;SDS011;54385;53.516;49.456;2022-07-04T02:04:03;1.00;;;1.00;;
67554;SDS011;54385;53.516;49.456;2022-07-04T02:06:31;1.00;;;1.00;;
67554;SDS011;54385;53.516;49.456;2022-07-04T02:08:58;0.93;;;0.93;;
67554;SDS011;54385;53.516;49.456;2022-07-04T02:11:44;1.05;;;1.05;;
67554;SDS011;54385;53.516;49.456;2022-07-04T02:14:31;0.95;;;0.95;;
67554;SDS011;54385;53.516;49.456;2022-07-04T02:16:58;1.10;;;1.10;;
67554;SDS011;54385;53.516;49.456;2022-07-04T02:19:25;0.98;;;0.98;;
67554;SDS011;54385;53.516;49.456;2022-07-04T02:21:51;1.00;;;1.00;;
67554;SDS011;54385;53.516;49.456;2022-07-04T02:24:18;0.90;;;0.90;;
67554;SDS011;54385;53.516;49.456;2022-07-04T02:26:46;1.08;;;1.08;;
67554;SDS011;54385;53.516;49.456;2022-07-04T02:29:14;1.10;;;1.10;;
67554;SDS011;54385;53.516;49.456;2022-07-04T02:31:40;1.02;;;1.02;;
67554;SDS011;54385;53.516;49.456;2022-07-04T02:34:07;1.13;;;1.13;;
67554;SDS011;54385;53.516;49.456;2022-07-04T02:36:34;0.98;;;0.98;;
67554;SDS011;54385;53.516;49.456;2022-07-04T02:39:00;1.00;;;1.00;;
67554;SDS011;54385;53.516;49.456;2022-07-04T02:41:27;1.02;;;1.02;;
67554;SDS011;54385;53.516;49.456;2022-07-04T02:43:53;1.15;;;1.15;;
67554;SDS011;54385;53.516;49.456;2022-07-04T02:46:20;1.05;;;1.05;;
67554;SDS011;54385;53.516;49.456;2022-07-04T02:48:49;2.42;;;2.33;;
67554;SDS011;54385;53.516;49.456;2022-07-04T02:51:16;0.98;;;0.98;;
67554;SDS011;54385;53.516;49.456;2022-07-04T02:53:43;1.13;;;1.13;;
67554;SDS011;54385;53.516;49.456;2022-07-04T02:56:09;1.02;;;1.02;;
67554;SDS011;54385;53.516;49.456;2022-07-04T02:58:35;1.05;;;1.05;;
67554;SDS011;54385;53.516;49.456;2022-07-04T03:01:02;1.00;;;1.00;;
67554;SDS011;54385;53.516;49.456;2022-07-04T03:03:28;1.00;;;1.00;;
67554;SDS011;54385;53.516;49.456;2022-07-04T03:05:55;1.05;;;1.05;;
67554;SDS011;54385;53.516;49.456;2022-07-04T03:08:21;1.05;;;1.05;;
67554;SDS011;54385;53.516;49.456;2022-07-04T03:10:51;1.10;;;1.10;;
67554;SDS011;54385;53.516;49.456;2022-07-04T03:13:18;2.25;;;2.15;;
67554;SDS011;54385;53.516;49.456;2022-07-04T03:15:45;1.13;;;1.13;;
67554;SDS011;54385;53.516;49.456;2022-07-04T03:18:12;1.10;;;1.10;;
67554;SDS011;54385;53.516;49.456;2022-07-04T03:20:38;1.15;;;1.15;;
67554;SDS011;54385;53.516;49.456;2022-07-04T03:23:04;1.02;;;1.02;;
67554;SDS011;54385;53.516;49.456;2022-07-04T03:25:31;1.13;;;1.13;;
67554;SDS011;54385;53.516;49.456;2022-07-04T03:27:57;1.13;;;1.13;;
67554;SDS011;54385;53.516;49.456;2022-07-04T03:30:24;1.08;;;1.08;;
67554;SDS011;54385;53.516;49.456;2022-07-04T03:32:50;1.15;;;1.15;;
67554;SDS011;54385;53.516;49.456;2022-07-04T03:35:17;1.15;;;1.15;;
67554;SDS011;54385;53.516;49.456;2022-07-04T03:37:43;1.10;;;1.10;;
67554;SDS011;54385;53.516;49.456;2022-07-04T03:40:10;1.20;;;1.20;;
67554;SDS011;54385;53.516;49.456;2022-07-04T03:42:36;1.10;;;1.10;;
67554;SDS011;54385;53.516;49.456;2022-07-04T03:45:03;1.10;;;1.10;;
67554;SDS011;54385;53.516;49.456;2022-07-04T03:47:31;1.25;;;1.25;;
67554;SDS011;54385;53.516;49.456;2022-07-04T03:49:58;1.15;;;1.15;;
67554;SDS011;54385;53.516;49.456;2022-07-04T03:52:25;1.23;;;1.23;;
67554;SDS011;54385;53.516;49.456;2022-07-04T03:54:54;1.27;;;1.27;;
67554;SDS011;54385;53.516;49.456;2022-07-04T03:57:21;2.38;;;2.28;;
67554;SDS011;54385;53.516;49.456;2022-07-04T03:59:51;2.65;;;2.55;;
67554;SDS011;54385;53.516;49.456;2022-07-04T04:02:20;1.25;;;1.25;;
67554;SDS011;54385;53.516;49.456;2022-07-04T04:04:47;1.30;;;1.30;;
67554;SDS011;54385;53.516;49.456;2022-07-04T04:07:41;1.38;;;1.38;;
67554;SDS011;54385;53.516;49.456;2022-07-04T04:10:11;1.35;;;1.35;;
67554;SDS011;54385;53.516;49.456;2022-07-04T04:12:37;1.50;;;1.50;;
67554;SDS011;54385;53.516;49.456;2022-07-04T04:15:04;1.40;;;1.40;;
67554;SDS011;54385;53.516;49.456;2022-07-04T04:17:31;1.42;;;1.42;;
67554;SDS011;54385;53.516;49.456;2022-07-04T04:19:57;1.35;;;1.35;;
67554;SDS011;54385;53.516;49.456;2022-07-04T04:22:23;1.50;;;1.50;;
67554;SDS011;54385;53.516;49.456;2022-07-04T04:24:50;1.45;;;1.45;;
67554;SDS011;54385;53.516;49.456;2022-07-04T04:27:16;1.33;;;1.33;;
67554;SDS011;54385;53.516;49.456;2022-07-04T04:29:46;1.52;;;1.52;;
67554;SDS011;54385;53.516;49.456;2022-07-04T04:32:19;1.40;;;1.40;;
67554;SDS011;54385;53.516;49.456;2022-07-04T04:34:47;1.60;;;1.60;;
67554;SDS011;54385;53.516;49.456;2022-07-04T04:37:24;1.42;;;1.42;;
67554;SDS011;54385;53.516;49.456;2022-07-04T04:39:50;1.50;;;1.50;;
67554;SDS011;54385;53.516;49.456;2022-07-04T04:42:23;1.50;;;1.50;;
67554;SDS011;54385;53.516;49.456;2022-07-04T04:44:50;1.45;;;1.45;;
67554;SDS011;54385;53.516;49.456;2022-07-04T04:47:17;1.48;;;1.48;;
67554;SDS011;54385;53.516;49.456;2022-07-04T04:49:44;1.60;;;1.60;;
67554;SDS011;54385;53.516;49.456;2022-07-04T04:52:11;1.70;;;1.70;;
67554;SDS011;54385;53.516;49.456;2022-07-04T04:54:37;1.75;;;1.75;;
67554;SDS011;54385;53.516;49.456;2022-07-04T04:57:04;1.60;;;1.60;;
67554;SDS011;54385;53.516;49.456;2022-07-04T04:59:31;1.67;;;1.67;;
67554;SDS011;54385;53.516;49.456;2022-07-04T05:01:57;1.70;;;1.70;;
67554;SDS011;54385;53.516;49.456;2022-07-04T05:04:25;1.60;;;1.60;;
67554;SDS011;54385;53.516;49.456;2022-07-04T05:06:52;1.65;;;1.65;;
67554;SDS011;54385;53.516;49.456;2022-07-04T05:09:18;1.55;;;1.55;;
67554;SDS011;54385;53.516;49.456;2022-07-04T05:11:45;1.67;;;1.67;;
67554;SDS011;54385;53.516;49.456;2022-07-04T05:14:12;1.55;;;1.55;;
67554;SDS011;54385;53.516;49.456;2022-07-04T05:16:39;1.50;;;1.50;;
67554;SDS011;54385;53.516;49.456;2022-07-04T05:19:06;1.65;;;1.65;;
67554;SDS011;54385;53.516;49.456;2022-07-04T05:21:32;1.38;;;1.38;;
67554;SDS011;54385;53.516;49.456;2022-07-04T05:23:58;1.50;;;1.50;;
67554;SDS011;54385;53.516;49.456;2022-07-04T05:26:25;1.50;;;1.50;;
67554;SDS011;54385;53.516;49.456;2022-07-04T05:28:52;1.50;;;1.50;;
67554;SDS011;54385;53.516;49.456;2022-07-04T05:31:23;1.30;;;1.30;;
67554;SDS011;54385;53.516;49.456;2022-07-04T05:33:53;1.38;;;1.38;;
67554;SDS011;54385;53.516;49.456;2022-07-04T05:36:20;1.45;;;1.45;;
67554;SDS011;54385;53.516;49.456;2022-07-04T05:38:50;1.50;;;1.50;;
67554;SDS011;54385;53.516;49.456;2022-07-04T05:41:17;1.50;;;1.50;;
67554;SDS011;54385;53.516;49.456;2022-07-04T05:43:46;2.28;;;2.17;;
67554;SDS011;54385;53.516;49.456;2022-07-04T05:46:12;1.52;;;1.52;;
67554;SDS011;54385;53.516;49.456;2022-07-04T05:48:41;1.40;;;1.40;;
67554;SDS011;54385;53.516;49.456;2022-07-04T05:51:11;1.42;;;1.42;;
67554;SDS011;54385;53.516;49.456;2022-07-04T05:53:37;1.42;;;1.42;;
67554;SDS011;54385;53.516;49.456;2022-07-04T05:56:04;1.40;;;1.40;;
67554;SDS011;54385;53.516;49.456;2022-07-04T05:58:31;1.63;;;1.63;;
67554;SDS011;54385;53.516;49.456;2022-07-04T06:00:57;1.55;;;1.55;;
67554;SDS011;54385;53.516;49.456;2022-07-04T06:03:24;1.67;;;1.67;;
67554;SDS011;54385;53.516;49.456;2022-07-04T06:05:50;1.73;;;1.73;;
67554;SDS011;54385;53.516;49.456;2022-07-04T06:08:17;1.50;;;1.50;;
67554;SDS011;54385;53.516;49.456;2022-07-04T06:10:43;1.60;;;1.60;;
67554;SDS011;54385;53.516;49.456;2022-07-04T06:13:10;1.50;;;1.50;;
67554;SDS011;54385;53.516;49.456;2022-07-04T06:15:36;1.60;;;1.60;;
67554;SDS011;54385;53.516;49.456;2022-07-04T06:18:03;1.60;;;1.60;;
67554;SDS011;54385;53.516;49.456;2022-07-04T06:20:29;1.70;;;1.70;;
67554;SDS011;54385;53.516;49.456;2022-07-04T06:22:56;1.63;;;1.63;;
67554;SDS011;54385;53.516;49.456;2022-07-04T06:25:22;1.58;;;1.58;;
67554;SDS011;54385;53.516;49.456;2022-07-04T06:27:49;1.60;;;1.60;;
67554;SDS011;54385;53.516;49.456;2022-07-04T06:30:17;1.70;;;1.70;;
67554;SDS011;54385;53.516;49.456;2022-07-04T06:32:50;1.77;;;1.77;;
67554;SDS011;54385;53.516;49.456;2022-07-04T06:35:19;1.98;;;1.90;;
67554;SDS011;54385;53.516;49.456;2022-07-04T06:38:07;3.10;;;3.00;;
67554;SDS011;54385;53.516;49.456;2022-07-04T06:40:34;1.88;;;1.83;;
67554;SDS011;54385;53.516;49.456;2022-07-04T06:43:02;1.83;;;1.83;;
67554;SDS011;54385;53.516;49.456;2022-07-04T06:45:29;1.75;;;1.75;;
67554;SDS011;54385;53.516;49.456;2022-07-04T06:47:56;1.80;;;1.80;;
67554;SDS011;54385;53.516;49.456;2022-07-04T06:50:22;1.85;;;1.83;;
67554;SDS011;54385;53.516;49.456;2022-07-04T06:52:52;1.95;;;1.90;;
67554;SDS011;54385;53.516;49.456;2022-07-04T06:55:18;1.80;;;1.80;;
67554;SDS011;54385;53.516;49.456;2022-07-04T06:57:59;1.70;;;1.70;;
67554;SDS011;54385;53.516;49.456;2022-07-04T07:00:26;1.80;;;1.80;;
67554;SDS011;54385;53.516;49.456;2022-07-04T07:05:25;2.97;;;2.88;;
67554;SDS011;54385;53.516;49.456;2022-07-04T07:07:52;1.67;;;1.67;;
67554;SDS011;54385;53.516;49.456;2022-07-04T07:10:19;1.40;;;1.40;;
67554;SDS011;54385;53.516;49.456;2022-07-04T07:12:46;1.63;;;1.63;;
67554;SDS011;54385;53.516;49.456;2022-07-04T07:15:13;1.50;;;1.50;;
67554;SDS011;54385;53.516;49.456;2022-07-04T07:17:43;2.40;;;2.30;;
67554;SDS011;54385;53.516;49.456;2022-07-04T07:20:09;1.60;;;1.60;;
67554;SDS011;54385;53.516;49.456;2022-07-04T07:22:37;1.67;;;1.67;;
67554;SDS011;54385;53.516;49.456;2022-07-04T07:25:03;1.50;;;1.50;;
67554;SDS011;54385;53.516;49.456;2022-07-04T07:27:30;1.60;;;1.60;;
67554;SDS011;54385;53.516;49.456;2022-07-04T07:29:56;1.65;;;1.65;;
67554;SDS011;54385;53.516;49.456;2022-07-04T07:32:23;1.60;;;1.60;;
67554;SDS011;54385;53.516;49.456;2022-07-04T07:34:49;1.73;;;1.73;;
67554;SDS011;54385;53.516;49.456;2022-07-04T07:37:16;1.63;;;1.63;;
67554;SDS011;54385;53.516;49.456;2022-07-04T07:39:43;1.65;;;1.65;;
67554;SDS011;54385;53.516;49.456;2022-07-04T07:42:09;1.63;;;1.63;;
67554;SDS011;54385;53.516;49.456;2022-07-04T07:44:36;1.85;;;1.85;;
67554;SDS011;54385;53.516;49.456;2022-07-04T07:47:02;1.70;;;1.70;;
67554;SDS011;54385;53.516;49.456;2022-07-04T07:49:29;1.63;;;1.63;;
67554;SDS011;54385;53.516;49.456;2022-07-04T07:51:55;1.73;;;1.73;;
67554;SDS011;54385;53.516;49.456;2022-07-04T07:54:23;1.60;;;1.60;;
67554;SDS011;54385;53.516;49.456;2022-07-04T07:56:50;1.70;;;1.70;;
67554;SDS011;54385;53.516;49.456;2022-07-04T07:59:16;1.70;;;1.70;;
67554;SDS011;54385;53.516;49.456;2022-07-04T08:01:43;1.50;;;1.50;;
67554;SDS011;54385;53.516;49.456;2022-07-04T08:04:09;1.70;;;1.70;;
67554;SDS011;54385;53.516;49.456;2022-07-04T08:06:54;1.80;;;1.80;;
67554;SDS011;54385;53.516;49.456;2022-07-04T08:09:21;1.58;;;1.58;;
67554;SDS011;54385;53.516;49.456;2022-07-04T08:11:47;1.67;;;1.67;;
67554;SDS011;54385;53.516;49.456;2022-07-04T08:14:14;1.60;;;1.60;;
67554;SDS011;54385;53.516;49.456;2022-07-04T08:16:40;1.80;;;1.80;;
67554;SDS011;54385;53.516;49.456;2022-07-04T08:19:10;2.95;;;2.85;;
67554;SDS011;54385;53.516;49.456;2022-07-04T08:21:37;1.73;;;1.73;;
67554;SDS011;54385;53.516;49.456;2022-07-04T08:24:05;1.60;;;1.60;;
67554;SDS011;54385;53.516;49.456;2022-07-04T08:26:31;1.90;;;1.88;;
67554;SDS011;54385;53.516;49.456;2022-07-04T08:28:58;1.65;;;1.65;;
67554;SDS011;54385;53.516;49.456;2022-07-04T08:31:27;1.67;;;1.67;;
67554;SDS011;54385;53.516;49.456;2022-07-04T08:33:54;2.65;;;2.55;;
67554;SDS011;54385;53.516;49.456;2022-07-04T08:36:20;1.60;;;1.60;;
67554;SDS011;54385;53.516;49.456;2022-07-04T08:38:47;1.70;;;1.70;;
67554;SDS011;54385;53.516;49.456;2022-07-04T08:41:14;1.70;;;1.70;;
67554;SDS011;54385;53.516;49.456;2022-07-04T08:43:42;1.65;;;1.65;;
67554;SDS011;54385;53.516;49.456;2022-07-04T08:46:10;1.75;;;1.75;;
67554;SDS011;54385;53.516;49.456;2022-07-04T08:48:38;1.75;;;1.75;;
67554;SDS011;54385;53.516;49.456;2022-07-04T08:51:16;3.25;;;3.15;;
67554;SDS011;54385;53.516;49.456;2022-07-04T08:53:55;1.70;;;1.70;;
67554;SDS011;54385;53.516;49.456;2022-07-04T08:56:23;1.80;;;1.80;;
67554;SDS011;54385;53.516;49.456;2022-07-04T08:59:09;1.77;;;1.77;;
67554;SDS011;54385;53.516;49.456;2022-07-04T09:01:37;1.83;;;1.83;;
67554;SDS011;54385;53.516;49.456;2022-07-04T09:04:08;1.95;;;1.85;;
67554;SDS011;54385;53.516;49.456;2022-07-04T09:06:35;1.60;;;1.60;;
67554;SDS011;54385;53.516;49.456;2022-07-04T09:09:02;1.88;;;1.85;;
67554;SDS011;54385;53.516;49.456;2022-07-04T09:11:29;1.80;;;1.80;;
67554;SDS011;54385;53.516;49.456;2022-07-04T09:13:56;1.92;;;1.88;;
67554;SDS011;54385;53.516;49.456;2022-07-04T09:16:24;1.75;;;1.75;;
67554;SDS011;54385;53.516;49.456;2022-07-04T09:18:50;2.10;;;2.00;;
67554;SDS011;54385;53.516;49.456;2022-07-04T09:21:20;1.77;;;1.77;;
67554;SDS011;54385;53.516;49.456;2022-07-04T09:23:48;2.00;;;1.92;;
67554;SDS011;54385;53.516;49.456;2022-07-04T09:26:19;2.13;;;2.03;;
67554;SDS011;54385;53.516;49.456;2022-07-04T09:28:51;1.88;;;1.88;;
67554;SDS011;54385;53.516;49.456;2022-07-04T09:31:22;1.90;;;1.85;;
67554;SDS011;54385;53.516;49.456;2022-07-04T09:33:53;1.85;;;1.83;;
67554;SDS011;54385;53.516;49.456;2022-07-04T09:36:26;2.13;;;2.03;;
67554;SDS011;54385;53.516;49.456;2022-07-04T09:44:22;2.25;;;2.15;;
67554;SDS011;54385;53.516;49.456;2022-07-04T09:46:54;2.63;;;2.53;;
67554;SDS011;54385;53.516;49.456;2022-07-04T09:49:22;2.53;;;2.42;;
67554;SDS011;54385;53.516;49.456;2022-07-04T09:51:49;2.80;;;2.70;;
67554;SDS011;54385;53.516;49.456;2022-07-04T09:54:29;3.95;;;3.83;;
67554;SDS011;54385;53.516;49.456;2022-07-04T09:56:59;3.35;;;3.25;;
67554;SDS011;54385;53.516;49.456;2022-07-04T09:59:27;5.03;;;4.82;;
67554;SDS011;54385;53.516;49.456;2022-07-04T10:02:12;3.47;;;3.38;;
67554;SDS011;54385;53.516;49.456;2022-07-04T10:04:49;6.53;;;6.23;;
67554;SDS011;54385;53.516;49.456;2022-07-04T10:13:01;6.88;;;6.57;;
67554;SDS011;54385;53.516;49.456;2022-07-04T10:15:30;5.47;;;5.28;;
67554;SDS011;54385;53.516;49.456;2022-07-04T10:18:03;6.35;;;6.05;;
67554;SDS011;54385;53.516;49.456;2022-07-04T10:20:30;6.05;;;5.75;;
67554;SDS011;54385;53.516;49.456;2022-07-04T10:22:57;6.15;;;5.85;;
67554;SDS011;54385;53.516;49.456;2022-07-04T10:25:24;5.22;;;5.03;;
67554;SDS011;54385;53.516;49.456;2022-07-04T10:27:51;5.40;;;5.20;;
67554;SDS011;54385;53.516;49.456;2022-07-04T10:30:22;4.93;;;4.72;;
67554;SDS011;54385;53.516;49.456;2022-07-04T10:38:13;5.35;;;5.15;;
67554;SDS011;54385;53.516;49.456;2022-07-04T10:40:45;6.20;;;5.90;;
67554;SDS011;54385;53.516;49.456;2022-07-04T10:48:51;5.05;;;4.85;;
67554;SDS011;54385;53.516;49.456;2022-07-04T10:51:40;5.07;;;4.88;;
67554;SDS011;54385;53.516;49.456;2022-07-04T10:54:32;4.40;;;4.20;;
67554;SDS011;54385;53.516;49.456;2022-07-04T10:57:09;4.47;;;4.28;;
67554;SDS011;54385;53.516;49.456;2022-07-04T11:07:20;4.68;;;4.47;;
67554;SDS011;54385;53.516;49.456;2022-07-04T11:17:59;5.82;;;5.60;;
67554;SDS011;54385;53.516;49.456;2022-07-04T11:20:44;4.70;;;4.50;;
67554;SDS011;54385;53.516;49.456;2022-07-04T11:23:15;4.25;;;4.05;;
67554;SDS011;54385;53.516;49.456;2022-07-04T11:25:45;4.35;;;4.15;;
67554;SDS011;54385;53.516;49.456;2022-07-04T11:28:27;4.28;;;4.07;;
67554;SDS011;54385;53.516;49.456;2022-07-04T11:30:57;4.43;;;4.22;;
67554;SDS011;54385;53.516;49.456;2022-07-04T11:33:27;6.55;;;6.25;;
67554;SDS011;54385;53.516;49.456;2022-07-04T11:41:40;5.53;;;5.32;;
67554;SDS011;54385;53.516;49.456;2022-07-04T11:44:31;7.43;;;7.13;;
67554;SDS011;54385;53.516;49.456;2022-07-04T11:47:40;5.70;;;5.50;;
67554;SDS011;54385;53.516;49.456;2022-07-04T11:50:09;5.75;;;5.55;;
67554;SDS011;54385;53.516;49.456;2022-07-04T11:55:06;5.00;;;4.80;;
67554;SDS011;54385;53.516;49.456;2022-07-04T11:57:39;4.50;;;4.30;;
67554;SDS011;54385;53.516;49.456;2022-07-04T12:00:10;4.32;;;4.13;;
67554;SDS011;54385;53.516;49.456;2022-07-04T12:02:38;5.35;;;5.15;;
67554;SDS011;54385;53.516;49.456;2022-07-04T12:05:06;4.50;;;4.30;;
67554;SDS011;54385;53.516;49.456;2022-07-04T12:07:35;5.68;;;5.47;;
67554;SDS011;54385;53.516;49.456;2022-07-04T12:10:08;5.35;;;5.15;;
67554;SDS011;54385;53.516;49.456;2022-07-04T12:15:22;5.93;;;5.68;;
67554;SDS011;54385;53.516;49.456;2022-07-04T12:17:50;5.97;;;5.70;;
67554;SDS011;54385;53.516;49.456;2022-07-04T12:20:20;6.85;;;6.55;;
67554;SDS011;54385;53.516;49.456;2022-07-04T12:22:51;8.70;;;8.30;;
67554;SDS011;54385;53.516;49.456;2022-07-04T12:25:22;7.50;;;7.20;;
67554;SDS011;54385;53.516;49.456;2022-07-04T12:30:25;8.20;;;7.80;;
67554;SDS011;54385;53.516;49.456;2022-07-04T12:32:56;9.02;;;8.63;;
67554;SDS011;54385;53.516;49.456;2022-07-04T12:35:46;8.70;;;8.30;;
67554;SDS011;54385;53.516;49.456;2022-07-04T12:38:29;10.63;;;10.13;;
67554;SDS011;54385;53.516;49.456;2022-07-04T12:41:01;11.07;;;10.57;;
67554;SDS011;54385;53.516;49.456;2022-07-04T12:46:07;9.45;;;9.05;;
67554;SDS011;54385;53.516;49.456;2022-07-04T12:48:36;8.10;;;7.70;;
67554;SDS011;54385;53.516;49.456;2022-07-04T12:54:06;6.50;;;6.20;;
67554;SDS011;54385;53.516;49.456;2022-07-04T12:56:38;7.18;;;6.88;;
67554;SDS011;54385;53.516;49.456;2022-07-04T12:59:05;4.72;;;4.53;;
67554;SDS011;54385;53.516;49.456;2022-07-04T13:01:40;4.63;;;4.43;;
67554;SDS011;54385;53.516;49.456;2022-07-04T13:04:08;5.00;;;4.80;;
67554;SDS011;54385;53.516;49.456;2022-07-04T13:06:35;4.80;;;4.60;;
67554;SDS011;54385;53.516;49.456;2022-07-04T13:09:03;5.50;;;5.30;;
67554;SDS011;54385;53.516;49.456;2022-07-04T13:14:15;6.97;;;6.68;;
67554;SDS011;54385;53.516;49.456;2022-07-04T13:16:42;6.90;;;6.60;;
67554;SDS011;54385;53.516;49.456;2022-07-04T13:19:09;8.82;;;8.43;;
67554;SDS011;54385;53.516;49.456;2022-07-04T13:21:35;8.25;;;7.85;;
67554;SDS011;54385;53.516;49.456;2022-07-04T13:24:02;9.13;;;8.73;;
67554;SDS011;54385;53.516;49.456;2022-07-04T13:26:28;7.65;;;7.35;;
67554;SDS011;54385;53.516;49.456;2022-07-04T13:28:56;6.88;;;6.57;;
67554;SDS011;54385;53.516;49.456;2022-07-04T13:31:23;5.57;;;5.38;;
67554;SDS011;54385;53.516;49.456;2022-07-04T13:33:49;4.78;;;4.57;;
67554;SDS011;54385;53.516;49.456;2022-07-04T13:36:16;4.57;;;4.38;;
67554;SDS011;54385;53.516;49.456;2022-07-04T13:38:44;4.50;;;4.30;;
67554;SDS011;54385;53.516;49.456;2022-07-04T13:41:10;5.00;;;4.80;;
67554;SDS011;54385;53.516;49.456;2022-07-04T13:43:36;5.40;;;5.20;;
67554;SDS011;54385;53.516;49.456;2022-07-04T13:46:03;5.60;;;5.40;;
67554;SDS011;54385;53.516;49.456;2022-07-04T13:48:30;4.28;;;4.07;;
67554;SDS011;54385;53.516;49.456;2022-07-04T13:50:59;5.35;;;5.15;;
67554;SDS011;54385;53.516;49.456;2022-07-04T13:53:26;4.25;;;4.05;;
67554;SDS011;54385;53.516;49.456;2022-07-04T13:55:53;4.68;;;4.47;;
67554;SDS011;54385;53.516;49.456;2022-07-04T13:58:19;4.53;;;4.32;;
67554;SDS011;54385;53.516;49.456;2022-07-04T14:00:46;4.00;;;3.85;;
67554;SDS011;54385;53.516;49.456;2022-07-04T14:03:12;3.60;;;3.50;;
67554;SDS011;54385;53.516;49.456;2022-07-04T14:05:42;2.92;;;2.83;;
67554;SDS011;54385;53.516;49.456;2022-07-04T14:08:09;2.90;;;2.80;;
67554;SDS011;54385;53.516;49.456;2022-07-04T14:10:36;2.90;;;2.80;;
67554;SDS011;54385;53.516;49.456;2022-07-04T14:13:02;2.50;;;2.40;;
67554;SDS011;54385;53.516;49.456;2022-07-04T14:15:29;2.70;;;2.60;;
67554;SDS011;54385;53.516;49.456;2022-07-04T14:17:55;2.50;;;2.40;;
67554;SDS011;54385;53.516;49.456;2022-07-04T14:20:21;2.33;;;2.22;;
67554;SDS011;54385;53.516;49.456;2022-07-04T14:22:48;2.30;;;2.20;;
67554;SDS011;54385;53.516;49.456;2022-07-04T14:25:14;2.10;;;2.00;;
67554;SDS011;54385;53.516;49.456;2022-07-04T14:27:41;2.47;;;2.38;;
67554;SDS011;54385;53.516;49.456;2022-07-04T14:30:07;2.15;;;2.05;;
67554;SDS011;54385;53.516;49.456;2022-07-04T14:32:34;2.25;;;2.15;;
67554;SDS011;54385;53.516;49.456;2022-07-04T14:35:01;2.38;;;2.28;;
67554;SDS011;54385;53.516;49.456;2022-07-04T14:37:28;2.30;;;2.20;;
67554;SDS011;54385;53.516;49.456;2022-07-04T14:39:54;2.35;;;2.25;;
67554;SDS011;54385;53.516;49.456;2022-07-04T14:42:21;2.38;;;2.28;;
67554;SDS011;54385;53.516;49.456;2022-07-04T14:44:47;2.20;;;2.10;;
67554;SDS011;54385;53.516;49.456;2022-07-04T14:47:14;2.50;;;2.40;;
67554;SDS011;54385;53.516;49.456;2022-07-04T14:49:40;2.22;;;2.13;;
67554;SDS011;54385;53.516;49.456;2022-07-04T14:52:06;2.13;;;2.03;;
67554;SDS011;54385;53.516;49.456;2022-07-04T14:54:33;2.05;;;1.95;;
67554;SDS011;54385;53.516;49.456;2022-07-04T14:56:59;2.10;;;2.00;;
67554;SDS011;54385;53.516;49.456;2022-07-04T14:59:26;2.10;;;2.00;;
67554;SDS011;54385;53.516;49.456;2022-07-04T15:01:52;2.08;;;1.98;;
67554;SDS011;54385;53.516;49.456;2022-07-04T15:04:19;2.03;;;1.92;;
67554;SDS011;54385;53.516;49.456;2022-07-04T15:06:45;2.00;;;1.90;;
67554;SDS011;54385;53.516;49.456;2022-07-04T15:09:13;1.83;;;1.83;;
67554;SDS011;54385;53.516;49.456;2022-07-04T15:11:40;1.88;;;1.85;;
67554;SDS011;54385;53.516;49.456;2022-07-04T15:14:06;1.88;;;1.85;;
67554;SDS011;54385;53.516;49.456;2022-07-04T15:16:32;1.95;;;1.90;;
67554;SDS011;54385;53.516;49.456;2022-07-04T15:18:59;1.80;;;1.80;;
67554;SDS011;54385;53.516;49.456;2022-07-04T15:21:25;1.98;;;1.92;;
67554;SDS011;54385;53.516;49.456;2022-07-04T15:24:10;2.00;;;1.92;;
67554;SDS011;54385;53.516;49.456;2022-07-04T15:26:43;2.15;;;2.05;;
67554;SDS011;54385;53.516;49.456;2022-07-04T15:29:10;2.17;;;2.08;;
67554;SDS011;54385;53.516;49.456;2022-07-04T15:31:38;1.88;;;1.85;;
67554;SDS011;54385;53.516;49.456;2022-07-04T15:34:04;1.70;;;1.70;;
67554;SDS011;54385;53.516;49.456;2022-07-04T15:36:31;1.70;;;1.70;;
67554;SDS011;54385;53.516;49.456;2022-07-04T15:38:57;1.83;;;1.83;;
67554;SDS011;54385;53.516;49.456;2022-07-04T15:41:24;2.05;;;1.95;;
67554;SDS011;54385;53.516;49.456;2022-07-04T15:43:50;2.00;;;1.92;;